createdAt,value
2019-06-27T00:00:05.981Z,25.62
2019-06-27T00:01:05.959Z,25.62
2019-06-27T00:02:05.638Z,25.62
2019-06-27T00:03:05.971Z,25.62
2019-06-27T00:04:05.954Z,25.56
2019-06-27T00:05:05.546Z,25.56
2019-06-27T00:06:05.635Z,25.56
2019-06-27T00:07:06.034Z,25.50
2019-06-27T00:08:05.466Z,25.50
2019-06-27T00:09:05.871Z,25.50
2019-06-27T00:10:06.435Z,25.50
2019-06-27T00:11:05.954Z,25.44
2019-06-27T00:12:05.639Z,25.44
2019-06-27T00:13:05.321Z,25.44
2019-06-27T00:14:05.473Z,25.38
2019-06-27T00:15:05.152Z,25.38
2019-06-27T00:16:05.235Z,25.38
2019-06-27T00:17:05.803Z,25.31
2019-06-27T00:18:05.880Z,25.31
2019-06-27T00:19:05.161Z,25.31
2019-06-27T00:20:05.477Z,25.31
2019-06-27T00:21:05.862Z,25.31
2019-06-27T00:22:05.511Z,25.31
2019-06-27T00:23:05.798Z,25.31
2019-06-27T00:24:05.897Z,25.25
2019-06-27T00:25:06.130Z,25.25
2019-06-27T00:26:05.645Z,25.25
2019-06-27T00:27:06.042Z,25.25
2019-06-27T00:28:05.727Z,25.25
2019-06-27T00:29:05.985Z,25.19
2019-06-27T00:30:13.152Z,25.19
2019-06-27T00:31:05.388Z,25.19
2019-06-27T00:32:06.049Z,25.19
2019-06-27T00:33:05.487Z,25.12
2019-06-27T00:34:05.986Z,25.12
2019-06-27T00:35:06.127Z,25.12
2019-06-27T00:36:05.389Z,25.12
2019-06-27T00:37:05.264Z,25.12
2019-06-27T00:38:05.315Z,25.06
2019-06-27T00:39:05.720Z,25.06
2019-06-27T00:40:05.946Z,25.00
2019-06-27T00:41:05.400Z,25.00
2019-06-27T00:42:05.551Z,25.00
2019-06-27T00:43:05.641Z,25.00
2019-06-27T00:44:05.943Z,25.00
2019-06-27T00:45:05.065Z,25.00
2019-06-27T00:46:05.159Z,25.00
2019-06-27T00:47:05.640Z,25.00
2019-06-27T00:48:05.806Z,24.94
2019-06-27T00:49:05.328Z,24.94
2019-06-27T00:50:05.717Z,24.94
2019-06-27T00:51:05.576Z,24.88
2019-06-27T00:52:05.707Z,24.88
2019-06-27T00:53:05.974Z,24.88
2019-06-27T00:54:05.956Z,24.88
2019-06-27T00:55:05.468Z,24.88
2019-06-27T00:56:05.951Z,24.81
2019-06-27T00:57:13.787Z,24.81
2019-06-27T00:58:05.335Z,24.81
2019-06-27T00:59:05.557Z,24.81
2019-06-27T01:00:05.072Z,24.81
2019-06-27T01:01:05.562Z,24.75
2019-06-27T01:02:05.499Z,24.75
2019-06-27T01:03:05.620Z,24.75
2019-06-27T01:04:05.642Z,24.69
2019-06-27T01:05:05.150Z,24.69
2019-06-27T01:06:05.314Z,24.69
2019-06-27T01:07:05.903Z,24.69
2019-06-27T01:08:05.977Z,24.69
2019-06-27T01:09:05.963Z,24.62
2019-06-27T01:10:05.722Z,24.62
2019-06-27T01:11:05.275Z,24.56
2019-06-27T01:12:05.232Z,24.50
2019-06-27T01:13:05.649Z,24.50
2019-06-27T01:14:05.725Z,24.50
2019-06-27T01:15:05.579Z,24.44
2019-06-27T01:16:05.807Z,24.44
2019-06-27T01:17:05.227Z,24.38
2019-06-27T01:18:05.507Z,24.38
2019-06-27T01:19:05.565Z,24.31
2019-06-27T01:20:05.649Z,24.25
2019-06-27T01:21:05.995Z,24.25
2019-06-27T01:22:05.071Z,24.19
2019-06-27T01:23:05.809Z,24.12
2019-06-27T01:24:05.959Z,24.12
2019-06-27T01:25:05.709Z,24.06
2019-06-27T01:26:05.513Z,24.06
2019-06-27T01:27:05.801Z,24.06
2019-06-27T01:28:05.412Z,24.06
2019-06-27T01:29:05.482Z,24.06
2019-06-27T01:30:05.971Z,24.00
2019-06-27T01:31:06.041Z,24.06
2019-06-27T01:32:05.330Z,24.00
2019-06-27T01:33:05.752Z,23.94
2019-06-27T01:34:05.710Z,24.00
2019-06-27T01:35:05.477Z,23.94
2019-06-27T01:36:06.046Z,23.94
2019-06-27T01:37:05.243Z,23.88
2019-06-27T01:38:05.722Z,23.88
2019-06-27T01:39:05.888Z,23.88
2019-06-27T01:40:06.058Z,23.81
2019-06-27T01:41:04.999Z,23.75
2019-06-27T01:42:05.641Z,23.75
2019-06-27T01:43:05.974Z,23.75
2019-06-27T01:44:05.967Z,23.75
2019-06-27T01:45:05.156Z,23.69
2019-06-27T01:46:05.254Z,23.69
2019-06-27T01:47:05.542Z,23.69
2019-06-27T01:48:05.714Z,23.69
2019-06-27T01:49:05.309Z,23.69
2019-06-27T01:50:05.643Z,23.69
2019-06-27T01:51:05.166Z,23.69
2019-06-27T01:52:05.558Z,23.69
2019-06-27T01:53:05.164Z,23.69
2019-06-27T01:54:05.416Z,23.69
2019-06-27T01:55:05.638Z,23.69
2019-06-27T01:56:05.902Z,23.62
2019-06-27T01:57:05.813Z,23.69
2019-06-27T01:58:06.045Z,23.62
2019-06-27T01:59:05.562Z,23.62
2019-06-27T02:00:05.648Z,23.62
2019-06-27T02:01:05.807Z,23.62
2019-06-27T02:02:05.090Z,23.62
2019-06-27T02:03:05.085Z,23.62
2019-06-27T02:04:05.411Z,23.62
2019-06-27T02:05:05.480Z,23.56
2019-06-27T02:06:05.566Z,23.56
2019-06-27T02:07:05.716Z,23.56
2019-06-27T02:08:05.253Z,23.56
2019-06-27T02:09:05.975Z,23.56
2019-06-27T02:10:05.894Z,23.56
2019-06-27T02:11:05.181Z,23.56
2019-06-27T02:12:05.173Z,23.56
2019-06-27T02:13:05.230Z,23.56
2019-06-27T02:14:05.875Z,23.56
2019-06-27T02:15:06.036Z,23.62
2019-06-27T02:16:05.577Z,23.62
2019-06-27T02:17:05.490Z,23.62
2019-06-27T02:18:05.874Z,23.62
2019-06-27T02:19:05.715Z,23.56
2019-06-27T02:20:05.956Z,23.56
2019-06-27T02:21:05.483Z,23.62
2019-06-27T02:22:05.489Z,23.62
2019-06-27T02:23:05.976Z,23.62
2019-06-27T02:24:06.141Z,23.62
2019-06-27T02:25:05.170Z,23.62
2019-06-27T02:26:05.437Z,23.62
2019-06-27T02:27:05.396Z,23.56
2019-06-27T02:28:05.562Z,23.56
2019-06-27T02:29:05.657Z,23.56
2019-06-27T02:30:05.989Z,23.56
2019-06-27T02:31:06.035Z,23.56
2019-06-27T02:32:05.152Z,23.56
2019-06-27T02:33:05.403Z,23.56
2019-06-27T02:34:06.980Z,23.56
2019-06-27T02:35:05.798Z,23.56
2019-06-27T02:36:06.931Z,23.56
2019-06-27T02:37:05.653Z,23.50
2019-06-27T02:38:05.165Z,23.50
2019-06-27T02:39:05.644Z,23.50
2019-06-27T02:40:05.491Z,23.50
2019-06-27T02:41:05.492Z,23.50
2019-06-27T02:42:05.567Z,23.50
2019-06-27T02:43:05.095Z,23.50
2019-06-27T02:44:05.159Z,23.50
2019-06-27T02:45:05.485Z,23.50
2019-06-27T02:46:05.966Z,23.44
2019-06-27T02:47:05.650Z,23.44
2019-06-27T02:48:05.883Z,23.44
2019-06-27T02:49:05.163Z,23.44
2019-06-27T02:50:05.333Z,23.44
2019-06-27T02:51:05.576Z,23.38
2019-06-27T02:52:05.810Z,23.38
2019-06-27T02:53:05.162Z,23.38
2019-06-27T02:54:06.064Z,23.38
2019-06-27T02:55:05.115Z,23.38
2019-06-27T02:56:05.555Z,23.31
2019-06-27T02:57:05.888Z,23.31
2019-06-27T02:58:27.309Z,23.38
2019-06-27T02:59:05.088Z,23.31
2019-06-27T03:00:05.232Z,23.31
2019-06-27T03:01:05.959Z,23.31
2019-06-27T03:02:05.644Z,23.31
2019-06-27T03:03:05.163Z,23.31
2019-06-27T03:04:05.767Z,23.25
2019-06-27T03:05:05.269Z,23.25
2019-06-27T03:06:05.236Z,23.25
2019-06-27T03:07:05.397Z,23.25
2019-06-27T03:08:05.478Z,23.25
2019-06-27T03:09:05.166Z,23.25
2019-06-27T03:10:05.741Z,23.25
2019-06-27T03:11:05.898Z,23.19
2019-06-27T03:12:05.177Z,23.19
2019-06-27T03:13:05.717Z,23.19
2019-06-27T03:14:05.476Z,23.12
2019-06-27T03:15:05.722Z,23.12
2019-06-27T03:16:05.807Z,23.12
2019-06-27T03:17:05.324Z,23.12
2019-06-27T03:18:05.164Z,23.06
2019-06-27T03:19:05.438Z,23.06
2019-06-27T03:20:05.895Z,23.06
2019-06-27T03:21:06.050Z,23.00
2019-06-27T03:22:05.872Z,23.00
2019-06-27T03:23:06.130Z,23.00
2019-06-27T03:24:05.488Z,23.00
2019-06-27T03:25:05.804Z,22.94
2019-06-27T03:26:05.244Z,22.94
2019-06-27T03:27:05.899Z,22.94
2019-06-27T03:28:05.891Z,22.94
2019-06-27T03:29:05.074Z,22.88
2019-06-27T03:30:05.455Z,22.88
2019-06-27T03:31:05.419Z,22.88
2019-06-27T03:32:05.178Z,22.88
2019-06-27T03:33:05.801Z,22.88
2019-06-27T03:34:05.967Z,22.88
2019-06-27T03:35:05.816Z,22.88
2019-06-27T03:36:05.915Z,22.88
2019-06-27T03:37:05.977Z,22.88
2019-06-27T03:38:05.082Z,22.81
2019-06-27T03:39:05.424Z,22.81
2019-06-27T03:40:05.589Z,22.81
2019-06-27T03:41:06.073Z,22.81
2019-06-27T03:42:06.187Z,22.88
2019-06-27T03:43:05.086Z,22.88
2019-06-27T03:44:05.235Z,22.94
2019-06-27T03:45:05.983Z,22.94
2019-06-27T03:46:05.804Z,22.94
2019-06-27T03:47:05.279Z,23.00
2019-06-27T03:48:05.078Z,23.06
2019-06-27T03:49:05.495Z,23.12
2019-06-27T03:50:05.573Z,23.19
2019-06-27T03:51:05.664Z,23.25
2019-06-27T03:52:05.731Z,23.31
2019-06-27T03:53:05.789Z,23.38
2019-06-27T03:54:05.493Z,23.38
2019-06-27T03:55:05.875Z,23.44
2019-06-27T03:56:05.000Z,23.44
2019-06-27T03:57:05.085Z,23.50
2019-06-27T03:58:05.424Z,23.62
2019-06-27T03:59:11.951Z,23.69
2019-06-27T04:00:05.260Z,23.69
2019-06-27T04:01:05.315Z,23.75
2019-06-27T04:02:05.006Z,23.88
2019-06-27T04:03:05.411Z,23.88
2019-06-27T04:04:05.876Z,24.00
2019-06-27T04:05:05.077Z,24.06
2019-06-27T04:06:05.841Z,24.12
2019-06-27T04:07:05.473Z,24.25
2019-06-27T04:08:06.141Z,24.31
2019-06-27T04:09:06.232Z,24.31
2019-06-27T04:10:05.582Z,24.38
2019-06-27T04:11:05.009Z,24.44
2019-06-27T04:12:05.081Z,24.50
2019-06-27T04:13:05.238Z,24.56
2019-06-27T04:14:05.897Z,24.69
2019-06-27T04:15:05.154Z,24.75
2019-06-27T04:16:05.800Z,24.88
2019-06-27T04:17:05.649Z,25.00
2019-06-27T04:18:05.240Z,25.06
2019-06-27T04:19:06.140Z,25.12
2019-06-27T04:20:05.074Z,25.25
2019-06-27T04:21:05.233Z,25.25
2019-06-27T04:22:05.569Z,25.25
2019-06-27T04:23:05.886Z,25.25
2019-06-27T04:24:05.264Z,25.25
2019-06-27T04:25:05.799Z,25.25
2019-06-27T04:26:05.159Z,25.38
2019-06-27T04:27:05.399Z,25.44
2019-06-27T04:28:05.552Z,25.56
2019-06-27T04:29:05.798Z,25.62
2019-06-27T04:30:06.169Z,25.75
2019-06-27T04:31:05.745Z,25.88
2019-06-27T04:32:05.900Z,25.94
2019-06-27T04:33:05.978Z,26.06
2019-06-27T04:34:05.489Z,26.12
2019-06-27T04:35:05.800Z,26.19
2019-06-27T04:36:05.171Z,26.19
2019-06-27T04:37:05.333Z,26.25
2019-06-27T04:38:05.410Z,26.38
2019-06-27T04:39:05.802Z,26.38
2019-06-27T04:40:05.481Z,26.38
2019-06-27T04:41:05.713Z,26.44
2019-06-27T04:42:05.486Z,26.56
2019-06-27T04:43:06.407Z,26.69
2019-06-27T04:44:05.957Z,26.75
2019-06-27T04:45:05.654Z,26.75
2019-06-27T04:46:05.152Z,26.81
2019-06-27T04:47:05.629Z,26.81
2019-06-27T04:48:05.335Z,26.94
2019-06-27T04:49:05.563Z,27.00
2019-06-27T04:50:05.169Z,27.06
2019-06-27T04:51:05.811Z,27.19
2019-06-27T04:52:05.331Z,27.38
2019-06-27T04:53:05.883Z,27.44
2019-06-27T04:54:05.233Z,27.56
2019-06-27T04:55:05.969Z,27.69
2019-06-27T04:56:05.401Z,27.88
2019-06-27T04:57:06.102Z,27.88
2019-06-27T04:58:06.035Z,28.00
2019-06-27T04:59:05.316Z,28.12
2019-06-27T05:00:05.598Z,28.25
2019-06-27T05:01:05.073Z,28.44
2019-06-27T05:02:05.744Z,28.38
2019-06-27T05:03:05.668Z,28.38
2019-06-27T05:04:05.247Z,28.44
2019-06-27T05:05:05.367Z,28.56
2019-06-27T05:06:05.081Z,28.75
2019-06-27T05:07:05.409Z,28.94
2019-06-27T05:08:05.427Z,29.06
2019-06-27T05:09:05.172Z,29.19
2019-06-27T05:10:05.875Z,29.19
2019-06-27T05:11:05.084Z,29.38
2019-06-27T05:12:05.650Z,29.50
2019-06-27T05:13:05.577Z,29.69
2019-06-27T05:14:05.899Z,29.69
2019-06-27T05:15:05.160Z,29.56
2019-06-27T05:16:05.811Z,29.56
2019-06-27T05:17:05.401Z,29.56
2019-06-27T05:18:05.650Z,29.44
2019-06-27T05:19:05.732Z,29.25
2019-06-27T05:20:05.577Z,29.38
2019-06-27T05:21:05.164Z,29.38
2019-06-27T05:22:05.551Z,29.62
2019-06-27T05:23:05.898Z,29.81
2019-06-27T05:24:05.316Z,29.75
2019-06-27T05:25:05.969Z,29.81
2019-06-27T05:26:05.330Z,29.75
2019-06-27T05:27:05.652Z,29.75
2019-06-27T05:28:05.805Z,29.56
2019-06-27T05:29:05.479Z,29.31
2019-06-27T05:30:09.713Z,29.19
2019-06-27T05:31:05.962Z,29.06
2019-06-27T05:32:05.736Z,29.00
2019-06-27T05:33:05.726Z,29.00
2019-06-27T05:34:06.043Z,29.19
2019-06-27T05:35:05.566Z,29.25
2019-06-27T05:36:05.963Z,29.19
2019-06-27T05:37:05.071Z,29.12
2019-06-27T05:38:05.740Z,29.19
2019-06-27T05:39:05.632Z,29.38
2019-06-27T05:40:05.808Z,29.50
2019-06-27T05:41:05.557Z,29.69
2019-06-27T05:42:05.247Z,29.81
2019-06-27T05:43:05.326Z,29.94
2019-06-27T05:44:05.499Z,30.12
2019-06-27T05:45:05.721Z,30.31
2019-06-27T05:46:05.454Z,30.38
2019-06-27T05:47:05.983Z,30.62
2019-06-27T05:48:06.043Z,30.81
2019-06-27T05:49:05.554Z,30.75
2019-06-27T05:50:05.811Z,30.75
2019-06-27T05:51:05.158Z,30.75
2019-06-27T05:52:05.403Z,30.81
2019-06-27T05:53:05.478Z,30.75
2019-06-27T05:54:06.050Z,30.75
2019-06-27T05:55:05.808Z,30.81
2019-06-27T05:56:05.804Z,30.88
2019-06-27T05:57:05.312Z,30.94
2019-06-27T05:58:05.582Z,30.81
2019-06-27T05:59:05.877Z,30.94
2019-06-27T06:00:05.753Z,31.00
2019-06-27T06:01:05.563Z,31.19
2019-06-27T06:02:05.434Z,31.31
2019-06-27T06:03:05.437Z,31.38
2019-06-27T06:04:05.413Z,31.38
2019-06-27T06:05:05.728Z,31.38
2019-06-27T06:06:05.416Z,31.31
2019-06-27T06:07:05.641Z,31.19
2019-06-27T06:08:05.251Z,31.00
2019-06-27T06:09:05.481Z,31.00
2019-06-27T06:10:05.567Z,31.06
2019-06-27T06:11:05.793Z,31.12
2019-06-27T06:12:05.165Z,31.19
2019-06-27T06:13:05.548Z,31.12
2019-06-27T06:14:05.156Z,31.12
2019-06-27T06:15:05.901Z,31.19
2019-06-27T06:16:05.967Z,31.31
2019-06-27T06:17:05.407Z,31.25
2019-06-27T06:18:05.801Z,31.25
2019-06-27T06:19:05.962Z,31.31
2019-06-27T06:20:05.156Z,31.38
2019-06-27T06:21:05.156Z,31.38
2019-06-27T06:22:05.399Z,31.31
2019-06-27T06:23:05.572Z,31.44
2019-06-27T06:24:05.734Z,31.56
2019-06-27T06:25:05.808Z,31.62
2019-06-27T06:26:05.193Z,31.62
2019-06-27T06:27:05.556Z,31.69
2019-06-27T06:28:05.663Z,31.81
2019-06-27T06:29:05.798Z,31.75
2019-06-27T06:30:05.267Z,31.81
2019-06-27T06:31:05.738Z,31.88
2019-06-27T06:32:05.652Z,31.81
2019-06-27T06:33:05.750Z,31.75
2019-06-27T06:34:05.478Z,31.81
2019-06-27T06:35:05.900Z,31.75
2019-06-27T06:36:05.409Z,31.62
2019-06-27T06:37:08.083Z,31.69
2019-06-27T06:38:05.878Z,31.75
2019-06-27T06:39:06.132Z,31.69
2019-06-27T06:40:05.069Z,31.56
2019-06-27T06:41:05.990Z,31.50
2019-06-27T06:42:05.265Z,31.62
2019-06-27T06:43:05.363Z,31.69
2019-06-27T06:44:05.726Z,31.75
2019-06-27T06:45:05.390Z,31.94
2019-06-27T06:46:05.551Z,31.88
2019-06-27T06:47:05.709Z,31.88
2019-06-27T06:48:05.888Z,31.75
2019-06-27T06:49:05.558Z,31.75
2019-06-27T06:50:05.712Z,31.69
2019-06-27T06:51:05.481Z,31.75
2019-06-27T06:52:05.144Z,31.81
2019-06-27T06:53:05.727Z,32.00
2019-06-27T06:54:05.893Z,32.19
2019-06-27T06:55:05.978Z,32.31
2019-06-27T06:56:05.409Z,32.44
2019-06-27T06:57:05.410Z,32.44
2019-06-27T06:58:05.138Z,32.56
2019-06-27T06:59:05.430Z,32.62
2019-06-27T07:00:06.114Z,32.62
2019-06-27T07:01:05.375Z,32.62
2019-06-27T07:02:05.489Z,32.75
2019-06-27T07:03:05.252Z,32.94
2019-06-27T07:04:05.244Z,32.94
2019-06-27T07:05:05.483Z,32.94
2019-06-27T07:06:05.921Z,33.00
2019-06-27T07:07:05.246Z,32.94
2019-06-27T07:08:05.310Z,32.94
2019-06-27T07:09:05.482Z,32.81
2019-06-27T07:10:05.785Z,32.81
2019-06-27T07:11:05.483Z,32.94
2019-06-27T07:12:05.321Z,32.94
2019-06-27T07:13:05.640Z,32.94
2019-06-27T07:14:06.030Z,33.06
2019-06-27T07:15:05.310Z,33.06
2019-06-27T07:16:05.953Z,33.06
2019-06-27T07:17:05.232Z,33.19
2019-06-27T07:18:05.661Z,33.25
2019-06-27T07:19:05.795Z,33.25
2019-06-27T07:20:06.074Z,33.31
2019-06-27T07:21:05.234Z,33.25
2019-06-27T07:22:05.961Z,33.19
2019-06-27T07:23:05.085Z,33.19
2019-06-27T07:24:05.256Z,33.12
2019-06-27T07:25:05.667Z,33.19
2019-06-27T07:26:06.030Z,33.25
2019-06-27T07:27:05.423Z,33.31
2019-06-27T07:28:05.476Z,33.38
2019-06-27T07:29:06.017Z,33.38
2019-06-27T07:30:05.249Z,33.19
2019-06-27T07:31:17.059Z,32.94
2019-06-27T07:32:05.874Z,32.81
2019-06-27T07:33:05.343Z,32.69
2019-06-27T07:34:05.636Z,32.69
2019-06-27T07:35:05.077Z,32.75
2019-06-27T07:36:05.412Z,32.81
2019-06-27T07:37:05.478Z,32.81
2019-06-27T07:38:05.967Z,32.88
2019-06-27T07:39:05.181Z,32.94
2019-06-27T07:40:05.568Z,32.81
2019-06-27T07:41:05.806Z,32.69
2019-06-27T07:42:05.187Z,32.75
2019-06-27T07:43:05.402Z,32.81
2019-06-27T07:44:05.256Z,32.75
2019-06-27T07:45:05.476Z,32.81
2019-06-27T07:46:05.808Z,32.88
2019-06-27T07:47:05.883Z,32.88
2019-06-27T07:48:05.010Z,32.88
2019-06-27T07:49:05.328Z,32.88
2019-06-27T07:50:06.048Z,32.81
2019-06-27T07:51:05.075Z,32.81
2019-06-27T07:52:05.901Z,32.75
2019-06-27T07:53:06.043Z,32.75
2019-06-27T07:54:05.412Z,32.69
2019-06-27T07:55:05.569Z,32.56
2019-06-27T07:56:05.822Z,32.44
2019-06-27T07:57:05.252Z,32.31
2019-06-27T07:58:05.478Z,32.38
2019-06-27T07:59:06.060Z,32.38
2019-06-27T08:00:06.055Z,32.38
2019-06-27T08:01:05.521Z,32.50
2019-06-27T08:02:05.491Z,32.56
2019-06-27T08:03:05.661Z,32.62
2019-06-27T08:04:05.715Z,32.69
2019-06-27T08:05:06.054Z,32.75
2019-06-27T08:06:05.653Z,32.75
2019-06-27T08:07:05.811Z,32.75
2019-06-27T08:08:06.065Z,32.75
2019-06-27T08:09:05.436Z,32.56
2019-06-27T08:10:05.234Z,32.50
2019-06-27T08:11:05.894Z,32.31
2019-06-27T08:12:05.796Z,32.00
2019-06-27T08:13:05.966Z,31.94
2019-06-27T08:14:05.086Z,31.75
2019-06-27T08:15:05.483Z,31.75
2019-06-27T08:16:05.560Z,31.81
2019-06-27T08:17:05.244Z,31.88
2019-06-27T08:18:05.445Z,31.88
2019-06-27T08:19:05.982Z,31.62
2019-06-27T08:20:06.031Z,31.69
2019-06-27T08:21:06.051Z,31.75
2019-06-27T08:22:05.100Z,31.75
2019-06-27T08:23:05.255Z,31.56
2019-06-27T08:24:05.886Z,31.50
2019-06-27T08:25:05.407Z,31.44
2019-06-27T08:26:06.220Z,31.19
2019-06-27T08:27:05.742Z,31.06
2019-06-27T08:28:05.084Z,31.12
2019-06-27T08:29:05.571Z,31.19
2019-06-27T08:30:08.375Z,31.19
2019-06-27T08:31:05.159Z,31.19
2019-06-27T08:32:05.418Z,31.19
2019-06-27T08:33:05.326Z,31.25
2019-06-27T08:34:05.429Z,31.31
2019-06-27T08:35:05.639Z,31.25
2019-06-27T08:36:05.090Z,31.25
2019-06-27T08:37:05.320Z,31.06
2019-06-27T08:38:05.716Z,31.00
2019-06-27T08:39:05.496Z,31.06
2019-06-27T08:40:05.966Z,31.06
2019-06-27T08:41:05.093Z,31.06
2019-06-27T08:42:05.415Z,31.06
2019-06-27T08:43:05.473Z,31.06
2019-06-27T08:44:05.720Z,31.00
2019-06-27T08:45:05.897Z,31.06
2019-06-27T08:46:05.970Z,31.00
2019-06-27T08:47:05.411Z,30.75
2019-06-27T08:48:05.338Z,30.31
2019-06-27T08:49:05.720Z,30.19
2019-06-27T08:50:05.036Z,30.12
2019-06-27T08:51:05.407Z,30.06
2019-06-27T08:52:05.478Z,30.12
2019-06-27T08:53:05.652Z,30.19
2019-06-27T08:54:05.271Z,30.25
2019-06-27T08:55:05.167Z,30.25
2019-06-27T08:56:05.976Z,30.25
2019-06-27T08:57:05.492Z,30.31
2019-06-27T08:58:05.974Z,30.38
2019-06-27T08:59:05.172Z,30.38
2019-06-27T09:00:05.975Z,30.31
2019-06-27T09:01:05.605Z,30.31
2019-06-27T09:02:08.861Z,30.31
2019-06-27T09:03:05.717Z,30.31
2019-06-27T09:04:05.154Z,30.25
2019-06-27T09:05:05.335Z,30.25
2019-06-27T09:06:05.492Z,30.25
2019-06-27T09:07:05.727Z,30.19
2019-06-27T09:08:05.733Z,30.19
2019-06-27T09:09:05.996Z,30.25
2019-06-27T09:10:05.166Z,30.19
2019-06-27T09:11:05.421Z,30.19
2019-06-27T09:12:05.629Z,30.25
2019-06-27T09:13:05.160Z,30.25
2019-06-27T09:14:05.899Z,30.25
2019-06-27T09:15:06.044Z,30.12
2019-06-27T09:16:05.309Z,30.00
2019-06-27T09:17:05.875Z,30.00
2019-06-27T09:18:05.581Z,29.94
2019-06-27T09:19:05.961Z,29.94
2019-06-27T09:20:06.148Z,29.94
2019-06-27T09:21:05.238Z,29.94
2019-06-27T09:22:05.878Z,29.75
2019-06-27T09:23:05.324Z,29.50
2019-06-27T09:24:05.492Z,29.50
2019-06-27T09:25:05.552Z,29.50
2019-06-27T09:26:05.736Z,29.50
2019-06-27T09:27:05.506Z,29.50
2019-06-27T09:28:05.734Z,29.50
2019-06-27T09:29:05.965Z,29.50
2019-06-27T09:30:05.398Z,29.50
2019-06-27T09:31:05.563Z,29.50
2019-06-27T09:32:05.669Z,29.44
2019-06-27T09:33:05.525Z,29.38
2019-06-27T09:34:05.401Z,29.31
2019-06-27T09:35:05.166Z,29.31
2019-06-27T09:36:05.247Z,29.38
2019-06-27T09:37:05.744Z,29.38
2019-06-27T09:38:05.883Z,29.31
2019-06-27T09:39:05.959Z,29.38
2019-06-27T09:40:05.320Z,29.31
2019-06-27T09:41:05.892Z,29.25
2019-06-27T09:42:05.350Z,29.25
2019-06-27T09:43:05.489Z,29.25
2019-06-27T09:44:05.873Z,29.25
2019-06-27T09:45:05.080Z,29.19
2019-06-27T09:46:05.790Z,29.12
2019-06-27T09:47:05.640Z,29.06
2019-06-27T09:48:05.959Z,29.06
2019-06-27T09:49:05.565Z,29.06
2019-06-27T09:50:05.161Z,29.06
2019-06-27T09:51:05.243Z,29.00
2019-06-27T09:52:05.798Z,29.00
2019-06-27T09:53:05.952Z,29.00
2019-06-27T09:54:05.086Z,28.94
2019-06-27T09:55:05.152Z,28.94
2019-06-27T09:56:05.325Z,28.94
2019-06-27T09:57:05.673Z,28.94
2019-06-27T09:58:05.899Z,28.94
2019-06-27T09:59:05.953Z,28.94
2019-06-27T10:00:05.080Z,28.94
2019-06-27T10:01:05.977Z,28.94
2019-06-27T10:02:05.810Z,28.88
2019-06-27T10:03:05.266Z,28.88
2019-06-27T10:04:05.730Z,28.88
2019-06-27T10:05:06.039Z,28.94
2019-06-27T10:06:05.513Z,28.94
2019-06-27T10:07:05.446Z,28.94
2019-06-27T10:08:05.641Z,28.94
2019-06-27T10:09:05.807Z,28.88
2019-06-27T10:10:05.093Z,28.88
2019-06-27T10:11:05.306Z,28.94
2019-06-27T10:12:05.802Z,28.88
2019-06-27T10:13:05.548Z,28.94
2019-06-27T10:14:05.166Z,28.94
2019-06-27T10:15:05.408Z,28.94
2019-06-27T10:16:05.722Z,28.88
2019-06-27T10:17:05.409Z,28.88
2019-06-27T10:18:05.871Z,28.88
2019-06-27T10:19:05.575Z,28.88
2019-06-27T10:20:05.725Z,28.88
2019-06-27T10:21:05.722Z,28.88
2019-06-27T10:22:05.418Z,28.94
2019-06-27T10:23:05.901Z,28.88
2019-06-27T10:24:05.885Z,28.75
2019-06-27T10:25:05.723Z,28.75
2019-06-27T10:26:05.633Z,28.75
2019-06-27T10:27:05.978Z,28.69
2019-06-27T10:28:05.955Z,28.69
2019-06-27T10:29:05.650Z,28.69
2019-06-27T10:30:05.328Z,28.69
2019-06-27T10:31:05.565Z,28.75
2019-06-27T10:32:05.133Z,28.75
2019-06-27T10:33:05.510Z,28.81
2019-06-27T10:34:05.966Z,28.81
2019-06-27T10:35:05.477Z,28.88
2019-06-27T10:36:05.968Z,28.88
2019-06-27T10:37:05.667Z,28.88
2019-06-27T10:38:05.163Z,28.94
2019-06-27T10:39:05.883Z,28.94
2019-06-27T10:40:05.321Z,28.94
2019-06-27T10:41:05.748Z,28.81
2019-06-27T10:42:05.648Z,28.81
2019-06-27T10:43:05.806Z,28.81
2019-06-27T10:44:05.869Z,28.88
2019-06-27T10:45:05.168Z,28.88
2019-06-27T10:46:06.049Z,28.94
2019-06-27T10:47:05.462Z,29.00
2019-06-27T10:48:05.076Z,29.00
2019-06-27T10:49:05.559Z,29.00
2019-06-27T10:50:05.663Z,29.00
2019-06-27T10:51:05.819Z,29.00
2019-06-27T10:52:05.866Z,29.00
2019-06-27T10:53:06.038Z,28.94
2019-06-27T10:54:05.163Z,28.88
2019-06-27T10:55:05.413Z,28.75
2019-06-27T10:56:05.405Z,28.69
2019-06-27T10:57:05.725Z,28.69
2019-06-27T10:58:06.039Z,28.75
2019-06-27T10:59:05.324Z,28.75
2019-06-27T11:00:06.052Z,28.75
2019-06-27T11:01:05.471Z,28.81
2019-06-27T11:02:05.658Z,28.81
2019-06-27T11:03:15.246Z,28.88
2019-06-27T11:04:05.254Z,28.94
2019-06-27T11:05:05.350Z,28.94
2019-06-27T11:06:05.983Z,29.00
2019-06-27T11:07:06.043Z,29.00
2019-06-27T11:08:05.554Z,29.00
2019-06-27T11:09:05.093Z,29.06
2019-06-27T11:10:05.648Z,29.12
2019-06-27T11:11:05.653Z,29.06
2019-06-27T11:12:05.416Z,29.06
2019-06-27T11:13:05.749Z,29.12
2019-06-27T11:14:05.986Z,29.19
2019-06-27T11:15:05.276Z,29.19
2019-06-27T11:16:05.517Z,29.12
2019-06-27T11:17:05.560Z,29.12
2019-06-27T11:18:05.174Z,29.19
2019-06-27T11:19:05.676Z,29.19
2019-06-27T11:20:06.036Z,29.25
2019-06-27T11:21:05.563Z,29.25
2019-06-27T11:22:05.836Z,29.25
2019-06-27T11:23:05.892Z,29.25
2019-06-27T11:24:05.308Z,29.31
2019-06-27T11:25:05.349Z,29.25
2019-06-27T11:26:09.175Z,29.25
2019-06-27T11:27:06.115Z,29.25
2019-06-27T11:28:05.168Z,29.25
2019-06-27T11:29:05.915Z,29.25
2019-06-27T11:30:05.282Z,29.31
2019-06-27T11:31:05.755Z,29.31
2019-06-27T11:32:05.919Z,29.31
2019-06-27T11:33:05.545Z,29.31
2019-06-27T11:34:05.716Z,29.38
2019-06-27T11:35:05.663Z,29.44
2019-06-27T11:36:05.132Z,29.44
2019-06-27T11:37:05.685Z,29.38
2019-06-27T11:38:05.761Z,29.31
2019-06-27T11:39:05.035Z,29.25
2019-06-27T11:40:05.680Z,29.25
2019-06-27T11:41:05.862Z,29.25
2019-06-27T11:42:05.824Z,29.25
2019-06-27T11:43:05.978Z,29.25
2019-06-27T11:44:05.250Z,29.25
2019-06-27T11:45:05.502Z,29.31
2019-06-27T11:46:08.683Z,29.31
2019-06-27T11:47:05.341Z,29.38
2019-06-27T11:48:05.845Z,29.44
2019-06-27T11:49:05.193Z,29.44
2019-06-27T11:50:05.250Z,29.44
2019-06-27T11:51:05.649Z,29.50
2019-06-27T11:52:05.169Z,29.50
2019-06-27T11:53:06.017Z,29.44
2019-06-27T11:54:05.090Z,29.44
2019-06-27T11:55:06.079Z,29.44
2019-06-27T11:56:05.409Z,29.50
2019-06-27T11:57:05.515Z,29.38
2019-06-27T11:58:05.975Z,29.38
2019-06-27T11:59:05.342Z,29.44
2019-06-27T12:00:07.578Z,29.50
2019-06-27T12:01:05.891Z,29.38
2019-06-27T12:02:05.313Z,29.38
2019-06-27T12:03:05.890Z,29.44
2019-06-27T12:04:06.087Z,29.44
2019-06-27T12:05:05.581Z,29.44
2019-06-27T12:06:05.615Z,29.50
2019-06-27T12:07:06.102Z,29.38
2019-06-27T12:08:06.126Z,29.38
2019-06-27T12:09:05.341Z,29.44
2019-06-27T12:10:05.649Z,29.38
2019-06-27T12:11:05.402Z,29.38
2019-06-27T12:12:05.731Z,29.31
2019-06-27T12:13:05.324Z,29.38
2019-06-27T12:14:05.393Z,29.38
2019-06-27T12:15:05.602Z,29.38
2019-06-27T12:16:05.978Z,29.44
2019-06-27T12:17:05.076Z,29.44
2019-06-27T12:18:05.231Z,29.44
2019-06-27T12:19:05.964Z,29.44
2019-06-27T12:20:05.481Z,29.50
2019-06-27T12:21:06.265Z,29.50
2019-06-27T12:22:05.171Z,29.44
2019-06-27T12:23:05.503Z,29.31
2019-06-27T12:24:05.569Z,29.25
2019-06-27T12:25:05.814Z,29.25
2019-06-27T12:26:05.441Z,29.25
2019-06-27T12:27:05.631Z,29.25
2019-06-27T12:28:05.815Z,29.31
2019-06-27T12:29:05.789Z,29.31
2019-06-27T12:30:05.934Z,29.31
2019-06-27T12:31:19.218Z,29.31
2019-06-27T12:32:05.625Z,29.25
2019-06-27T12:33:05.365Z,29.25
2019-06-27T12:34:06.648Z,29.25
2019-06-27T12:35:05.151Z,29.25
2019-06-27T12:36:05.647Z,29.25
2019-06-27T12:37:05.238Z,29.25
2019-06-27T12:38:05.656Z,29.25
2019-06-27T12:39:05.903Z,29.25
2019-06-27T12:40:05.471Z,29.25
2019-06-27T12:41:05.880Z,29.25
2019-06-27T12:42:05.892Z,29.25
2019-06-27T12:43:06.048Z,29.31
2019-06-27T12:44:05.641Z,29.31
2019-06-27T12:45:05.153Z,29.38
2019-06-27T12:46:05.325Z,29.38
2019-06-27T12:47:05.625Z,29.44
2019-06-27T12:48:06.743Z,29.50
2019-06-27T12:49:06.853Z,29.50
2019-06-27T12:50:05.407Z,29.56
2019-06-27T12:51:05.400Z,29.56
2019-06-27T12:52:05.638Z,29.56